sensor_id;sensor_type;location;lat;lon;timestamp;P1;durP1;ratioP1;P2;durP2;ratioP2
47337;SDS011;33069;51.970;5.892;2024-02-16T00:02:17;364.95;;;345.48;;
47337;SDS011;33069;51.970;5.892;2024-02-16T00:05:04;362.65;;;342.63;;
47337;SDS011;33069;51.970;5.892;2024-02-16T00:07:52;443.52;;;419.05;;
47337;SDS011;33069;51.970;5.892;2024-02-16T00:10:38;432.20;;;406.88;;
47337;SDS011;33069;51.970;5.892;2024-02-16T00:13:24;329.30;;;311.70;;
47337;SDS011;33069;51.970;5.892;2024-02-16T00:16:10;276.63;;;261.02;;
47337;SDS011;33069;51.970;5.892;2024-02-16T00:18:56;398.40;;;377.30;;
47337;SDS011;33069;51.970;5.892;2024-02-16T00:21:42;403.10;;;379.83;;
47337;SDS011;33069;51.970;5.892;2024-02-16T00:24:28;406.92;;;384.02;;
47337;SDS011;33069;51.970;5.892;2024-02-16T00:27:17;434.70;;;411.50;;
47337;SDS011;33069;51.970;5.892;2024-02-16T00:30:03;375.73;;;355.77;;
47337;SDS011;33069;51.970;5.892;2024-02-16T00:32:49;444.65;;;420.38;;
47337;SDS011;33069;51.970;5.892;2024-02-16T00:35:35;436.45;;;412.33;;
47337;SDS011;33069;51.970;5.892;2024-02-16T00:38:24;398.67;;;376.88;;
47337;SDS011;33069;51.970;5.892;2024-02-16T00:41:16;419.23;;;395.77;;
47337;SDS011;33069;51.970;5.892;2024-02-16T00:44:05;350.08;;;330.95;;
47337;SDS011;33069;51.970;5.892;2024-02-16T00:46:51;284.45;;;269.17;;
47337;SDS011;33069;51.970;5.892;2024-02-16T00:49:37;315.75;;;298.13;;
47337;SDS011;33069;51.970;5.892;2024-02-16T00:52:23;282.35;;;267.58;;
47337;SDS011;33069;51.970;5.892;2024-02-16T00:55:09;372.52;;;352.88;;
47337;SDS011;33069;51.970;5.892;2024-02-16T00:57:56;276.50;;;261.08;;
47337;SDS011;33069;51.970;5.892;2024-02-16T01:00:41;308.50;;;292.05;;
47337;SDS011;33069;51.970;5.892;2024-02-16T01:03:29;188.43;;;177.95;;
47337;SDS011;33069;51.970;5.892;2024-02-16T01:06:15;256.75;;;242.65;;
47337;SDS011;33069;51.970;5.892;2024-02-16T01:09:01;267.80;;;253.60;;
47337;SDS011;33069;51.970;5.892;2024-02-16T01:11:47;259.70;;;246.05;;
47337;SDS011;33069;51.970;5.892;2024-02-16T01:14:33;351.00;;;331.88;;
47337;SDS011;33069;51.970;5.892;2024-02-16T01:17:19;252.25;;;238.50;;
47337;SDS011;33069;51.970;5.892;2024-02-16T01:20:05;305.88;;;289.08;;
47337;SDS011;33069;51.970;5.892;2024-02-16T01:22:55;314.15;;;297.00;;
47337;SDS011;33069;51.970;5.892;2024-02-16T01:25:41;287.25;;;271.83;;
47337;SDS011;33069;51.970;5.892;2024-02-16T01:28:28;315.58;;;298.60;;
47337;SDS011;33069;51.970;5.892;2024-02-16T01:31:13;278.48;;;262.90;;
47337;SDS011;33069;51.970;5.892;2024-02-16T01:33:59;257.83;;;244.27;;
47337;SDS011;33069;51.970;5.892;2024-02-16T01:36:45;385.92;;;365.58;;
47337;SDS011;33069;51.970;5.892;2024-02-16T01:39:31;221.18;;;209.27;;
47337;SDS011;33069;51.970;5.892;2024-02-16T01:42:17;235.77;;;223.35;;
47337;SDS011;33069;51.970;5.892;2024-02-16T01:45:03;370.60;;;350.52;;
47337;SDS011;33069;51.970;5.892;2024-02-16T01:47:50;335.98;;;317.40;;
47337;SDS011;33069;51.970;5.892;2024-02-16T01:50:37;299.15;;;283.38;;
47337;SDS011;33069;51.970;5.892;2024-02-16T01:53:23;299.23;;;283.17;;
47337;SDS011;33069;51.970;5.892;2024-02-16T01:56:09;262.67;;;248.18;;
47337;SDS011;33069;51.970;5.892;2024-02-16T01:58:55;297.30;;;281.30;;
47337;SDS011;33069;51.970;5.892;2024-02-16T02:01:41;267.60;;;253.18;;
47337;SDS011;33069;51.970;5.892;2024-02-16T02:04:27;278.15;;;263.25;;
47337;SDS011;33069;51.970;5.892;2024-02-16T02:07:14;281.92;;;266.70;;
47337;SDS011;33069;51.970;5.892;2024-02-16T02:10:01;449.73;;;426.13;;
47337;SDS011;33069;51.970;5.892;2024-02-16T02:12:47;322.77;;;305.42;;
47337;SDS011;33069;51.970;5.892;2024-02-16T02:15:33;369.58;;;350.13;;
47337;SDS011;33069;51.970;5.892;2024-02-16T02:18:19;360.55;;;341.35;;
47337;SDS011;33069;51.970;5.892;2024-02-16T02:21:04;438.10;;;414.45;;
47337;SDS011;33069;51.970;5.892;2024-02-16T02:23:50;357.20;;;338.50;;
47337;SDS011;33069;51.970;5.892;2024-02-16T02:26:37;427.80;;;404.70;;
47337;SDS011;33069;51.970;5.892;2024-02-16T02:29:23;266.05;;;252.02;;
47337;SDS011;33069;51.970;5.892;2024-02-16T02:32:10;290.23;;;274.88;;
47337;SDS011;33069;51.970;5.892;2024-02-16T02:34:56;273.23;;;258.70;;
47337;SDS011;33069;51.970;5.892;2024-02-16T02:37:42;298.25;;;282.25;;
47337;SDS011;33069;51.970;5.892;2024-02-16T02:40:28;261.35;;;247.38;;
47337;SDS011;33069;51.970;5.892;2024-02-16T02:43:14;463.73;;;438.50;;
47337;SDS011;33069;51.970;5.892;2024-02-16T02:46:01;313.73;;;296.58;;
47337;SDS011;33069;51.970;5.892;2024-02-16T02:48:47;418.55;;;395.40;;
47337;SDS011;33069;51.970;5.892;2024-02-16T02:51:33;534.92;;;504.33;;
47337;SDS011;33069;51.970;5.892;2024-02-16T02:54:19;311.92;;;294.52;;
47337;SDS011;33069;51.970;5.892;2024-02-16T02:57:04;343.85;;;325.23;;
47337;SDS011;33069;51.970;5.892;2024-02-16T02:59:52;439.50;;;415.92;;
47337;SDS011;33069;51.970;5.892;2024-02-16T03:02:38;327.55;;;310.25;;
47337;SDS011;33069;51.970;5.892;2024-02-16T03:05:24;452.02;;;427.98;;
47337;SDS011;33069;51.970;5.892;2024-02-16T03:08:10;392.02;;;371.27;;
47337;SDS011;33069;51.970;5.892;2024-02-16T03:10:56;457.05;;;432.05;;
47337;SDS011;33069;51.970;5.892;2024-02-16T03:13:45;446.52;;;422.23;;
47337;SDS011;33069;51.970;5.892;2024-02-16T03:16:32;518.22;;;489.67;;
47337;SDS011;33069;51.970;5.892;2024-02-16T03:19:18;492.48;;;465.08;;
47337;SDS011;33069;51.970;5.892;2024-02-16T03:22:04;470.52;;;445.00;;
47337;SDS011;33069;51.970;5.892;2024-02-16T03:24:49;464.58;;;438.73;;
47337;SDS011;33069;51.970;5.892;2024-02-16T03:27:36;405.35;;;383.48;;
47337;SDS011;33069;51.970;5.892;2024-02-16T03:30:22;484.30;;;457.67;;
47337;SDS011;33069;51.970;5.892;2024-02-16T03:33:08;515.13;;;487.05;;
47337;SDS011;33069;51.970;5.892;2024-02-16T03:35:54;547.33;;;516.58;;
47337;SDS011;33069;51.970;5.892;2024-02-16T03:38:41;387.63;;;366.20;;
47337;SDS011;33069;51.970;5.892;2024-02-16T03:41:28;377.05;;;357.25;;
47337;SDS011;33069;51.970;5.892;2024-02-16T03:44:14;476.20;;;451.02;;
47337;SDS011;33069;51.970;5.892;2024-02-16T03:47:03;448.20;;;424.25;;
47337;SDS011;33069;51.970;5.892;2024-02-16T03:49:49;484.75;;;458.30;;
47337;SDS011;33069;51.970;5.892;2024-02-16T03:52:35;479.48;;;454.00;;
47337;SDS011;33069;51.970;5.892;2024-02-16T03:55:21;452.63;;;428.38;;
47337;SDS011;33069;51.970;5.892;2024-02-16T03:58:07;371.80;;;352.05;;
47337;SDS011;33069;51.970;5.892;2024-02-16T04:00:53;457.55;;;432.85;;
47337;SDS011;33069;51.970;5.892;2024-02-16T04:03:40;359.92;;;340.40;;
47337;SDS011;33069;51.970;5.892;2024-02-16T04:06:26;449.58;;;426.25;;
47337;SDS011;33069;51.970;5.892;2024-02-16T04:09:12;346.20;;;327.90;;
47337;SDS011;33069;51.970;5.892;2024-02-16T04:11:58;436.35;;;412.30;;
47337;SDS011;33069;51.970;5.892;2024-02-16T04:14:44;515.95;;;487.20;;
47337;SDS011;33069;51.970;5.892;2024-02-16T04:17:31;399.83;;;378.77;;
47337;SDS011;33069;51.970;5.892;2024-02-16T04:20:17;484.13;;;457.33;;
47337;SDS011;33069;51.970;5.892;2024-02-16T04:23:04;373.95;;;354.27;;
47337;SDS011;33069;51.970;5.892;2024-02-16T04:25:50;384.98;;;364.70;;
47337;SDS011;33069;51.970;5.892;2024-02-16T04:28:36;312.13;;;296.73;;
47337;SDS011;33069;51.970;5.892;2024-02-16T04:31:22;341.75;;;324.33;;
47337;SDS011;33069;51.970;5.892;2024-02-16T04:34:08;371.48;;;352.95;;
47337;SDS011;33069;51.970;5.892;2024-02-16T04:36:54;399.60;;;378.40;;
47337;SDS011;33069;51.970;5.892;2024-02-16T04:39:40;407.35;;;387.25;;
47337;SDS011;33069;51.970;5.892;2024-02-16T04:42:26;477.10;;;452.13;;
47337;SDS011;33069;51.970;5.892;2024-02-16T04:45:12;489.58;;;463.30;;
47337;SDS011;33069;51.970;5.892;2024-02-16T04:48:02;453.90;;;429.80;;
47337;SDS011;33069;51.970;5.892;2024-02-16T04:50:49;531.55;;;500.67;;
47337;SDS011;33069;51.970;5.892;2024-02-16T04:53:34;509.42;;;481.63;;
47337;SDS011;33069;51.970;5.892;2024-02-16T04:56:20;458.13;;;434.05;;
47337;SDS011;33069;51.970;5.892;2024-02-16T04:59:08;546.75;;;516.90;;
47337;SDS011;33069;51.970;5.892;2024-02-16T05:01:54;502.80;;;475.42;;
47337;SDS011;33069;51.970;5.892;2024-02-16T05:04:41;535.10;;;506.23;;
47337;SDS011;33069;51.970;5.892;2024-02-16T05:07:27;542.42;;;511.90;;
47337;SDS011;33069;51.970;5.892;2024-02-16T05:10:13;497.92;;;470.17;;
47337;SDS011;33069;51.970;5.892;2024-02-16T05:12:59;482.25;;;456.15;;
47337;SDS011;33069;51.970;5.892;2024-02-16T05:15:45;523.17;;;494.30;;
47337;SDS011;33069;51.970;5.892;2024-02-16T05:18:34;501.20;;;473.98;;
47337;SDS011;33069;51.970;5.892;2024-02-16T05:21:20;476.55;;;451.40;;
47337;SDS011;33069;51.970;5.892;2024-02-16T05:24:05;408.48;;;387.45;;
47337;SDS011;33069;51.970;5.892;2024-02-16T05:26:52;396.08;;;374.15;;
47337;SDS011;33069;51.970;5.892;2024-02-16T05:29:37;381.52;;;361.65;;
47337;SDS011;33069;51.970;5.892;2024-02-16T05:32:24;376.38;;;357.45;;
47337;SDS011;33069;51.970;5.892;2024-02-16T05:35:10;417.55;;;395.27;;
47337;SDS011;33069;51.970;5.892;2024-02-16T05:38:02;367.88;;;348.90;;
47337;SDS011;33069;51.970;5.892;2024-02-16T05:40:56;377.52;;;358.15;;
47337;SDS011;33069;51.970;5.892;2024-02-16T05:43:45;398.92;;;378.20;;
47337;SDS011;33069;51.970;5.892;2024-02-16T05:46:31;393.08;;;372.58;;
47337;SDS011;33069;51.970;5.892;2024-02-16T05:49:17;436.23;;;413.63;;
47337;SDS011;33069;51.970;5.892;2024-02-16T05:52:03;358.75;;;340.30;;
47337;SDS011;33069;51.970;5.892;2024-02-16T05:55:02;519.50;;;417.17;;
47337;SDS011;33069;51.970;5.892;2024-02-16T05:57:49;312.80;;;297.00;;
47337;SDS011;33069;51.970;5.892;2024-02-16T06:00:35;379.50;;;359.88;;
47337;SDS011;33069;51.970;5.892;2024-02-16T06:03:21;451.70;;;427.45;;
47337;SDS011;33069;51.970;5.892;2024-02-16T06:06:07;338.75;;;320.42;;
47337;SDS011;33069;51.970;5.892;2024-02-16T06:08:53;483.60;;;457.48;;
47337;SDS011;33069;51.970;5.892;2024-02-16T06:11:39;467.75;;;442.52;;
47337;SDS011;33069;51.970;5.892;2024-02-16T06:14:25;410.38;;;388.33;;
47337;SDS011;33069;51.970;5.892;2024-02-16T06:17:11;398.98;;;378.23;;
47337;SDS011;33069;51.970;5.892;2024-02-16T06:19:59;408.90;;;386.95;;
47337;SDS011;33069;51.970;5.892;2024-02-16T06:22:45;362.30;;;343.52;;
47337;SDS011;33069;51.970;5.892;2024-02-16T06:25:32;482.60;;;455.65;;
47337;SDS011;33069;51.970;5.892;2024-02-16T06:28:17;544.22;;;513.17;;
47337;SDS011;33069;51.970;5.892;2024-02-16T06:31:03;549.40;;;517.20;;
47337;SDS011;33069;51.970;5.892;2024-02-16T06:33:50;503.73;;;474.88;;
47337;SDS011;33069;51.970;5.892;2024-02-16T06:36:35;472.30;;;446.45;;
47337;SDS011;33069;51.970;5.892;2024-02-16T06:39:21;399.73;;;378.50;;
47337;SDS011;33069;51.970;5.892;2024-02-16T06:42:07;501.98;;;461.88;;
47337;SDS011;33069;51.970;5.892;2024-02-16T06:44:53;384.98;;;364.38;;
47337;SDS011;33069;51.970;5.892;2024-02-16T06:47:39;310.05;;;294.33;;
47337;SDS011;33069;51.970;5.892;2024-02-16T06:50:25;294.00;;;278.80;;
47337;SDS011;33069;51.970;5.892;2024-02-16T06:53:11;295.75;;;280.52;;
47337;SDS011;33069;51.970;5.892;2024-02-16T06:55:57;383.23;;;363.60;;
47337;SDS011;33069;51.970;5.892;2024-02-16T06:58:44;335.00;;;317.42;;
47337;SDS011;33069;51.970;5.892;2024-02-16T07:01:30;454.80;;;430.23;;
47337;SDS011;33069;51.970;5.892;2024-02-16T07:04:17;466.58;;;440.73;;
47337;SDS011;33069;51.970;5.892;2024-02-16T07:07:03;510.17;;;475.73;;
47337;SDS011;33069;51.970;5.892;2024-02-16T07:09:51;445.02;;;421.08;;
47337;SDS011;33069;51.970;5.892;2024-02-16T07:12:37;424.08;;;401.15;;
47337;SDS011;33069;51.970;5.892;2024-02-16T07:15:24;367.85;;;347.60;;
47337;SDS011;33069;51.970;5.892;2024-02-16T07:18:12;360.77;;;341.63;;
47337;SDS011;33069;51.970;5.892;2024-02-16T07:20:58;516.50;;;487.45;;
47337;SDS011;33069;51.970;5.892;2024-02-16T07:23:44;457.08;;;431.70;;
47337;SDS011;33069;51.970;5.892;2024-02-16T07:26:30;553.58;;;513.83;;
47337;SDS011;33069;51.970;5.892;2024-02-16T07:29:16;575.45;;;541.45;;
47337;SDS011;33069;51.970;5.892;2024-02-16T07:32:02;582.78;;;548.15;;
47337;SDS011;33069;51.970;5.892;2024-02-16T07:34:48;437.83;;;413.92;;
47337;SDS011;33069;51.970;5.892;2024-02-16T07:37:34;761.50;;;702.78;;
47337;SDS011;33069;51.970;5.892;2024-02-16T07:40:21;484.80;;;456.13;;
47337;SDS011;33069;51.970;5.892;2024-02-16T07:43:07;512.40;;;483.90;;
47337;SDS011;33069;51.970;5.892;2024-02-16T07:45:53;407.83;;;384.38;;
47337;SDS011;33069;51.970;5.892;2024-02-16T07:48:40;545.70;;;507.02;;
47337;SDS011;33069;51.970;5.892;2024-02-16T07:51:26;470.08;;;443.13;;
47337;SDS011;33069;51.970;5.892;2024-02-16T07:54:11;467.33;;;439.20;;
47337;SDS011;33069;51.970;5.892;2024-02-16T07:56:57;535.88;;;503.85;;
47337;SDS011;33069;51.970;5.892;2024-02-16T07:59:45;427.63;;;403.27;;
47337;SDS011;33069;51.970;5.892;2024-02-16T08:02:31;382.58;;;361.83;;
47337;SDS011;33069;51.970;5.892;2024-02-16T08:05:17;459.17;;;433.70;;
47337;SDS011;33069;51.970;5.892;2024-02-16T08:08:04;615.47;;;577.30;;
47337;SDS011;33069;51.970;5.892;2024-02-16T08:10:50;441.38;;;417.10;;
47337;SDS011;33069;51.970;5.892;2024-02-16T08:13:37;599.08;;;550.40;;
47337;SDS011;33069;51.970;5.892;2024-02-16T08:16:23;575.35;;;539.17;;
47337;SDS011;33069;51.970;5.892;2024-02-16T08:19:08;494.95;;;464.50;;
47337;SDS011;33069;51.970;5.892;2024-02-16T08:21:54;1320.95;;;685.28;;
47337;SDS011;33069;51.970;5.892;2024-02-16T08:24:40;531.88;;;499.00;;
47337;SDS011;33069;51.970;5.892;2024-02-16T08:27:26;593.22;;;548.55;;
47337;SDS011;33069;51.970;5.892;2024-02-16T08:30:12;583.53;;;547.95;;
47337;SDS011;33069;51.970;5.892;2024-02-16T08:32:58;485.23;;;454.05;;
47337;SDS011;33069;51.970;5.892;2024-02-16T08:35:45;363.60;;;343.48;;
47337;SDS011;33069;51.970;5.892;2024-02-16T08:38:31;502.55;;;474.10;;
47337;SDS011;33069;51.970;5.892;2024-02-16T08:41:17;359.40;;;339.70;;
47337;SDS011;33069;51.970;5.892;2024-02-16T08:44:04;620.70;;;576.92;;
47337;SDS011;33069;51.970;5.892;2024-02-16T08:46:50;453.52;;;428.58;;
47337;SDS011;33069;51.970;5.892;2024-02-16T08:49:36;472.15;;;445.42;;
47337;SDS011;33069;51.970;5.892;2024-02-16T08:52:23;455.73;;;428.48;;
47337;SDS011;33069;51.970;5.892;2024-02-16T08:55:09;432.17;;;408.25;;
47337;SDS011;33069;51.970;5.892;2024-02-16T08:57:55;596.08;;;558.20;;
47337;SDS011;33069;51.970;5.892;2024-02-16T09:00:42;523.10;;;491.08;;
47337;SDS011;33069;51.970;5.892;2024-02-16T09:03:29;489.92;;;461.70;;
47337;SDS011;33069;51.970;5.892;2024-02-16T09:06:20;472.10;;;444.95;;
47337;SDS011;33069;51.970;5.892;2024-02-16T09:09:06;790.00;;;721.55;;
47337;SDS011;33069;51.970;5.892;2024-02-16T09:11:53;559.10;;;520.30;;
47337;SDS011;33069;51.970;5.892;2024-02-16T09:14:39;533.40;;;501.70;;
47337;SDS011;33069;51.970;5.892;2024-02-16T09:17:25;610.83;;;571.03;;
47337;SDS011;33069;51.970;5.892;2024-02-16T09:20:11;613.05;;;574.55;;
47337;SDS011;33069;51.970;5.892;2024-02-16T09:22:57;622.05;;;582.78;;
47337;SDS011;33069;51.970;5.892;2024-02-16T09:25:43;578.78;;;542.25;;
47337;SDS011;33069;51.970;5.892;2024-02-16T09:28:31;524.13;;;493.55;;
47337;SDS011;33069;51.970;5.892;2024-02-16T09:31:17;663.53;;;618.15;;
47337;SDS011;33069;51.970;5.892;2024-02-16T09:34:03;488.02;;;457.23;;
47337;SDS011;33069;51.970;5.892;2024-02-16T09:36:49;519.88;;;485.75;;
47337;SDS011;33069;51.970;5.892;2024-02-16T09:39:35;543.20;;;508.02;;
47337;SDS011;33069;51.970;5.892;2024-02-16T09:42:22;651.08;;;600.30;;
47337;SDS011;33069;51.970;5.892;2024-02-16T09:45:11;496.95;;;467.92;;
47337;SDS011;33069;51.970;5.892;2024-02-16T09:48:00;749.38;;;686.55;;
47337;SDS011;33069;51.970;5.892;2024-02-16T09:50:48;598.42;;;561.30;;
47337;SDS011;33069;51.970;5.892;2024-02-16T09:53:36;723.42;;;670.83;;
47337;SDS011;33069;51.970;5.892;2024-02-16T09:56:22;607.53;;;569.35;;
47337;SDS011;33069;51.970;5.892;2024-02-16T09:59:09;783.33;;;718.78;;
47337;SDS011;33069;51.970;5.892;2024-02-16T10:02:03;615.80;;;576.80;;
47337;SDS011;33069;51.970;5.892;2024-02-16T10:04:49;1213.43;;;764.50;;
47337;SDS011;33069;51.970;5.892;2024-02-16T10:07:35;626.75;;;585.33;;
47337;SDS011;33069;51.970;5.892;2024-02-16T10:10:25;682.35;;;639.30;;
47337;SDS011;33069;51.970;5.892;2024-02-16T10:13:12;775.90;;;720.17;;
47337;SDS011;33069;51.970;5.892;2024-02-16T10:16:05;647.75;;;602.63;;
47337;SDS011;33069;51.970;5.892;2024-02-16T10:18:54;752.25;;;697.58;;
47337;SDS011;33069;51.970;5.892;2024-02-16T10:21:42;904.30;;;813.97;;
47337;SDS011;33069;51.970;5.892;2024-02-16T10:24:29;728.10;;;680.33;;
47337;SDS011;33069;51.970;5.892;2024-02-16T10:27:15;870.38;;;792.60;;
47337;SDS011;33069;51.970;5.892;2024-02-16T10:30:02;666.65;;;608.25;;
47337;SDS011;33069;51.970;5.892;2024-02-16T10:32:56;1601.80;;;821.97;;
47337;SDS011;33069;51.970;5.892;2024-02-16T10:35:44;644.60;;;600.22;;
47337;SDS011;33069;51.970;5.892;2024-02-16T10:38:32;600.83;;;560.45;;
47337;SDS011;33069;51.970;5.892;2024-02-16T10:41:19;795.17;;;728.33;;
47337;SDS011;33069;51.970;5.892;2024-02-16T10:44:07;781.30;;;717.10;;
47337;SDS011;33069;51.970;5.892;2024-02-16T10:46:53;712.08;;;660.63;;
47337;SDS011;33069;51.970;5.892;2024-02-16T10:49:43;680.65;;;632.00;;
47337;SDS011;33069;51.970;5.892;2024-02-16T10:52:30;594.92;;;546.13;;
47337;SDS011;33069;51.970;5.892;2024-02-16T10:55:17;615.70;;;571.03;;
47337;SDS011;33069;51.970;5.892;2024-02-16T10:58:03;537.95;;;503.40;;
47337;SDS011;33069;51.970;5.892;2024-02-16T11:00:52;700.35;;;633.88;;
47337;SDS011;33069;51.970;5.892;2024-02-16T11:03:39;679.05;;;629.53;;
47337;SDS011;33069;51.970;5.892;2024-02-16T11:06:25;545.78;;;511.67;;
47337;SDS011;33069;51.970;5.892;2024-02-16T11:09:11;795.63;;;720.58;;
47337;SDS011;33069;51.970;5.892;2024-02-16T11:12:01;973.92;;;641.35;;
47337;SDS011;33069;51.970;5.892;2024-02-16T11:14:48;593.03;;;551.33;;
47337;SDS011;33069;51.970;5.892;2024-02-16T11:17:40;624.55;;;582.97;;
47337;SDS011;33069;51.970;5.892;2024-02-16T11:20:26;674.75;;;622.05;;
47337;SDS011;33069;51.970;5.892;2024-02-16T11:23:12;559.40;;;525.13;;
47337;SDS011;33069;51.970;5.892;2024-02-16T11:26:03;635.70;;;595.25;;
47337;SDS011;33069;51.970;5.892;2024-02-16T11:28:50;731.03;;;672.53;;
47337;SDS011;33069;51.970;5.892;2024-02-16T11:31:36;766.97;;;691.38;;
47337;SDS011;33069;51.970;5.892;2024-02-16T11:34:25;869.47;;;702.95;;
47337;SDS011;33069;51.970;5.892;2024-02-16T11:37:12;714.22;;;649.05;;
47337;SDS011;33069;51.970;5.892;2024-02-16T11:39:59;1238.22;;;799.45;;
47337;SDS011;33069;51.970;5.892;2024-02-16T11:42:45;756.55;;;681.10;;
47337;SDS011;33069;51.970;5.892;2024-02-16T11:45:33;1427.57;;;867.00;;
47337;SDS011;33069;51.970;5.892;2024-02-16T11:48:20;801.63;;;732.47;;
47337;SDS011;33069;51.970;5.892;2024-02-16T11:51:07;820.63;;;736.30;;
47337;SDS011;33069;51.970;5.892;2024-02-16T11:53:56;1617.45;;;851.55;;
47337;SDS011;33069;51.970;5.892;2024-02-16T11:56:44;831.60;;;729.78;;
47337;SDS011;33069;51.970;5.892;2024-02-16T11:59:36;777.08;;;695.80;;
47337;SDS011;33069;51.970;5.892;2024-02-16T12:02:24;694.08;;;640.42;;
47337;SDS011;33069;51.970;5.892;2024-02-16T12:05:13;1092.13;;;793.50;;
47337;SDS011;33069;51.970;5.892;2024-02-16T12:08:00;1005.28;;;704.25;;
47337;SDS011;33069;51.970;5.892;2024-02-16T12:10:46;1424.38;;;819.42;;
47337;SDS011;33069;51.970;5.892;2024-02-16T12:13:34;635.75;;;592.13;;
47337;SDS011;33069;51.970;5.892;2024-02-16T12:16:20;803.55;;;724.80;;
47337;SDS011;33069;51.970;5.892;2024-02-16T12:19:06;789.72;;;708.67;;
47337;SDS011;33069;51.970;5.892;2024-02-16T12:21:54;759.47;;;679.38;;
47337;SDS011;33069;51.970;5.892;2024-02-16T12:24:44;813.22;;;733.33;;
47337;SDS011;33069;51.970;5.892;2024-02-16T12:27:35;641.03;;;589.40;;
47337;SDS011;33069;51.970;5.892;2024-02-16T12:30:21;1028.20;;;777.45;;
47337;SDS011;33069;51.970;5.892;2024-02-16T12:33:07;875.75;;;776.78;;
47337;SDS011;33069;51.970;5.892;2024-02-16T12:35:53;1513.88;;;851.15;;
47337;SDS011;33069;51.970;5.892;2024-02-16T12:38:42;676.78;;;616.15;;
47337;SDS011;33069;51.970;5.892;2024-02-16T12:41:32;760.30;;;687.60;;
47337;SDS011;33069;51.970;5.892;2024-02-16T12:44:19;962.85;;;779.50;;
47337;SDS011;33069;51.970;5.892;2024-02-16T12:47:05;778.47;;;698.05;;
47337;SDS011;33069;51.970;5.892;2024-02-16T12:49:51;756.42;;;691.70;;
47337;SDS011;33069;51.970;5.892;2024-02-16T12:52:41;659.15;;;611.40;;
47337;SDS011;33069;51.970;5.892;2024-02-16T12:55:27;707.65;;;640.28;;
47337;SDS011;33069;51.970;5.892;2024-02-16T12:58:14;762.92;;;696.15;;
47337;SDS011;33069;51.970;5.892;2024-02-16T13:01:01;866.42;;;781.05;;
47337;SDS011;33069;51.970;5.892;2024-02-16T13:03:48;1423.50;;;769.25;;
47337;SDS011;33069;51.970;5.892;2024-02-16T13:06:34;1296.20;;;883.83;;
47337;SDS011;33069;51.970;5.892;2024-02-16T13:09:20;1164.13;;;846.03;;
47337;SDS011;33069;51.970;5.892;2024-02-16T13:12:06;1250.45;;;776.25;;
47337;SDS011;33069;51.970;5.892;2024-02-16T13:14:52;1838.47;;;898.35;;
47337;SDS011;33069;51.970;5.892;2024-02-16T13:17:38;996.72;;;818.10;;
47337;SDS011;33069;51.970;5.892;2024-02-16T13:20:24;756.22;;;665.65;;
47337;SDS011;33069;51.970;5.892;2024-02-16T13:23:10;1086.28;;;728.17;;
47337;SDS011;33069;51.970;5.892;2024-02-16T13:25:56;723.88;;;653.40;;
47337;SDS011;33069;51.970;5.892;2024-02-16T13:28:43;888.63;;;773.03;;
47337;SDS011;33069;51.970;5.892;2024-02-16T13:31:29;1878.82;;;921.63;;
47337;SDS011;33069;51.970;5.892;2024-02-16T13:34:15;997.15;;;711.80;;
47337;SDS011;33069;51.970;5.892;2024-02-16T13:37:01;1208.65;;;757.75;;
47337;SDS011;33069;51.970;5.892;2024-02-16T13:39:47;890.80;;;712.17;;
47337;SDS011;33069;51.970;5.892;2024-02-16T13:42:33;996.17;;;832.42;;
47337;SDS011;33069;51.970;5.892;2024-02-16T13:45:19;1088.35;;;726.45;;
47337;SDS011;33069;51.970;5.892;2024-02-16T13:48:08;1250.78;;;827.33;;
47337;SDS011;33069;51.970;5.892;2024-02-16T13:50:55;720.65;;;660.83;;
47337;SDS011;33069;51.970;5.892;2024-02-16T13:53:42;1151.60;;;812.25;;
47337;SDS011;33069;51.970;5.892;2024-02-16T13:56:28;853.60;;;766.65;;
47337;SDS011;33069;51.970;5.892;2024-02-16T13:59:14;757.30;;;681.65;;
47337;SDS011;33069;51.970;5.892;2024-02-16T14:02:00;971.60;;;811.33;;
47337;SDS011;33069;51.970;5.892;2024-02-16T14:04:47;611.88;;;571.95;;
47337;SDS011;33069;51.970;5.892;2024-02-16T14:07:35;590.72;;;553.45;;
47337;SDS011;33069;51.970;5.892;2024-02-16T14:10:21;985.45;;;776.03;;
47337;SDS011;33069;51.970;5.892;2024-02-16T14:13:07;1226.53;;;880.47;;
47337;SDS011;33069;51.970;5.892;2024-02-16T14:15:53;568.00;;;531.28;;
47337;SDS011;33069;51.970;5.892;2024-02-16T14:18:39;601.25;;;562.72;;
47337;SDS011;33069;51.970;5.892;2024-02-16T14:21:25;748.53;;;675.67;;
47337;SDS011;33069;51.970;5.892;2024-02-16T14:24:11;646.63;;;602.55;;
47337;SDS011;33069;51.970;5.892;2024-02-16T14:26:57;607.90;;;554.95;;
47337;SDS011;33069;51.970;5.892;2024-02-16T14:29:44;651.28;;;604.35;;
47337;SDS011;33069;51.970;5.892;2024-02-16T14:32:30;437.90;;;412.27;;
47337;SDS011;33069;51.970;5.892;2024-02-16T14:35:16;974.38;;;768.15;;
47337;SDS011;33069;51.970;5.892;2024-02-16T14:38:05;771.38;;;708.20;;
47337;SDS011;33069;51.970;5.892;2024-02-16T14:40:51;901.50;;;795.75;;
47337;SDS011;33069;51.970;5.892;2024-02-16T14:43:37;665.92;;;615.80;;
47337;SDS011;33069;51.970;5.892;2024-02-16T14:46:26;621.38;;;582.40;;
47337;SDS011;33069;51.970;5.892;2024-02-16T14:49:13;796.65;;;713.67;;
47337;SDS011;33069;51.970;5.892;2024-02-16T14:52:06;722.63;;;647.80;;
47337;SDS011;33069;51.970;5.892;2024-02-16T14:54:52;1031.50;;;754.08;;
47337;SDS011;33069;51.970;5.892;2024-02-16T14:57:39;724.95;;;652.55;;
47337;SDS011;33069;51.970;5.892;2024-02-16T15:00:29;587.95;;;546.53;;
47337;SDS011;33069;51.970;5.892;2024-02-16T15:03:15;615.15;;;564.90;;
47337;SDS011;33069;51.970;5.892;2024-02-16T15:06:01;655.50;;;605.17;;
47337;SDS011;33069;51.970;5.892;2024-02-16T15:08:48;608.85;;;570.47;;
47337;SDS011;33069;51.970;5.892;2024-02-16T15:11:34;572.17;;;538.13;;
47337;SDS011;33069;51.970;5.892;2024-02-16T15:14:20;506.55;;;478.92;;
47337;SDS011;33069;51.970;5.892;2024-02-16T15:17:06;499.05;;;471.02;;
47337;SDS011;33069;51.970;5.892;2024-02-16T15:19:53;486.98;;;460.20;;
47337;SDS011;33069;51.970;5.892;2024-02-16T15:22:39;596.67;;;557.60;;
47337;SDS011;33069;51.970;5.892;2024-02-16T15:25:28;774.35;;;699.88;;
47337;SDS011;33069;51.970;5.892;2024-02-16T15:28:14;658.45;;;590.13;;
47337;SDS011;33069;51.970;5.892;2024-02-16T15:31:01;534.95;;;500.42;;
47337;SDS011;33069;51.970;5.892;2024-02-16T15:33:47;495.95;;;468.38;;
47337;SDS011;33069;51.970;5.892;2024-02-16T15:36:33;580.58;;;542.15;;
47337;SDS011;33069;51.970;5.892;2024-02-16T15:39:19;495.98;;;466.27;;
47337;SDS011;33069;51.970;5.892;2024-02-16T15:42:05;491.70;;;463.88;;
47337;SDS011;33069;51.970;5.892;2024-02-16T15:44:54;865.03;;;622.80;;
47337;SDS011;33069;51.970;5.892;2024-02-16T15:47:40;594.30;;;552.28;;